Gundsomagle, Denmark
Current Conditions -  °F | °C
As of 12:50 AM on Tuesday 21 Oct 2014 (Local Time) from EKRK Reporting Station
Scattered Clouds Scattered Clouds  
Wind Chill: 48°   Ceiling: Unl
Heat Index: 48°   Visibility: 4mi
Dew Point: 48°   Wind: 1mph
Humidity: 100%   Direction: 200°SSW
Pressure: 29.71"   Gusts: NA
Location:  55.74°N, 12.15°E
Report Text: EKRK 202250Z AUTO 20001KT 7000NDV SCT090/// 09/09 Q1006
Loading
Personal Weather Stations






























Interactive Weather Map
Tropical Storm Tracking
New forecast layout! Learn more

10-Day Weather Forecast

Advertisements
Track Severe Weather on mobile